Saint Francis, KS

1:49 PM CDT on August 28, 2015 (GMT -0500)
South Center on Hwy 36 | | Change Station
CLOSE
Current Station
Personal Weather Station
Location: St Francis, KS
Elevation: 3350 ft
Nearby Weather Stations

Elev 3350 ft 39.77 °N, 101.80 °W | Updated 9 seconds ago

Clear
Clear
87.4 °F
Feels Like 84 °F
N
7.4
Wind Variable Wind from WNW
Gusts 9.8 mph

Today
High -- | Low -- °F
--% Chance of Precip.
Yesterday
High -- | Low -- °F
Precip. -- in
7:11 AM 8:24 PM
Waxing Gibbous, 98% visible
Pressure 30.05 in
Visibility 10.0 miles
Clouds Clear
Heat Index 84 °F
Dew Point 47 °F
Humidity 25%
Rainfall 0.00 in
Snow Depth Not available.
UV 6.0 out of 12
Pollen 9.90 out of 12
Air Quality Not available.
Flu Activity Not available.
METAR KSYF 281835Z AUTO 32015G19KT 10SM CLR 31/05 A3005 RMK AO2 T03130050
Pressure 30.05 in
Visibility 10.0 miles
Clouds Clear
Heat Index 84 °F
Dew Point 47 °F
Humidity 25%
Rainfall 0.00 in
Snow Depth Not available.
UV 6.0 out of 12
Pollen 9.90 out of 12
Air Quality Not available.
Flu Activity Not available.
METAR KSYF 281835Z AUTO 32015G19KT 10SM CLR 31/05 A3005 RMK AO2 T03130050

10-Day Weather Forecast

×

Almanac

Astronomy

Aug. 28, 2015 Rise Set
Actual Time
Civil Twilight
Nautical Twilight
Astronomical Twilight
Moon
Length of Visible Light
Length of Day
Tomorrow will be .
, % of the Moon is Illuminated

Today's Extremes

State Highs State Lows

Community

WunderPhotos

Upload Photos

1,850,453 photos uploaded!

WunderBlogs® & News

Nearby

Air Quality

  Air Quality AQ Index Pollutant
Not available.

Snow Depth

Station Depth Elevation

Earthquake Activity

City Distance Mag. Time & Date
Minimum magnitude displayed is 2.5.

Coastal Water Temperatures

Place Temperature

Stations

Nearby Weather Stations

Station Location Temp. Windchill Dew Point Humidity Wind Precip. Elev Updated Type